Time;durP1;ratioP1;P1;durP2;ratioP2;P2;SDS_P1;SDS_P2;PMS_P1;PMS_P2;Temp;Humidity;BMP_temperature;BMP_pressure;BME280_temperature;BME280_humidity;BME280_pressure;Samples;Min_cycle;Max_cycle;Signal;HPM_P1;HPM_P2
2024/01/13 00:00:13;;;;;;;;;;;15.90;51.80;;;;;;7395458;19;1400;-72
2024/01/13 00:02:39;;;;;;;;;;;16.00;51.90;;;;;;7398489;19;1170;-72
2024/01/13 00:05:04;;;;;;;;;;;15.90;51.90;;;;;;7394150;19;1523;-72
2024/01/13 00:07:30;;;;;;;;;;;15.90;52.00;;;;;;7395604;19;1894;-72
2024/01/13 00:09:55;;;;;;;;;;;15.90;52.00;;;;;;7393089;19;1123;-72
2024/01/13 00:12:21;;;;;;;;;;;15.90;52.00;;;;;;7394674;19;919;-72
2024/01/13 00:14:46;;;;;;;;;;;15.80;51.90;;;;;;7394992;19;1014;-72
2024/01/13 00:17:12;;;;;;;;;;;15.80;51.90;;;;;;7392337;19;1855;-72
2024/01/13 00:19:37;;;;;;;;;;;15.80;52.10;;;;;;7394035;19;2580;-72
2024/01/13 00:22:03;;;;;;;;;;;15.80;52.10;;;;;;7396657;19;1628;-72
2024/01/13 00:24:28;;;;;;;;;;;15.80;52.20;;;;;;7399856;19;902;-72
2024/01/13 00:26:54;;;;;;;;;;;15.80;52.20;;;;;;7403926;19;2400;-72
2024/01/13 00:29:19;;;;;;;;;;;15.70;52.20;;;;;;7401347;19;832;-72
2024/01/13 00:31:44;;;;;;;;;;;15.70;52.20;;;;;;7403869;19;1579;-72
2024/01/13 00:34:10;;;;;;;;;;;15.70;52.20;;;;;;7400481;19;829;-73
2024/01/13 00:36:35;;;;;;;;;;;15.70;52.30;;;;;;7403066;19;1845;-72
2024/01/13 00:39:01;;;;;;;;;;;15.70;52.30;;;;;;7400648;19;879;-72
2024/01/13 00:41:26;;;;;;;;;;;15.70;52.30;;;;;;7402264;19;1611;-72
2024/01/13 00:43:52;;;;;;;;;;;15.60;52.90;;;;;;7402519;19;1879;-72
2024/01/13 00:46:17;;;;;;;;;;;15.60;52.60;;;;;;7400513;19;784;-72
2024/01/13 00:48:43;;;;;;;;;;;15.60;52.30;;;;;;7399810;19;2054;-73
2024/01/13 00:51:09;;;;;;;;;;;15.60;52.40;;;;;;7400864;19;1859;-72
2024/01/13 00:53:34;;;;;;;;;;;15.60;52.50;;;;;;7399499;19;808;-72
2024/01/13 00:56:00;;;;;;;;;;;15.60;52.40;;;;;;7401195;19;1951;-72
2024/01/13 00:58:25;;;;;;;;;;;15.60;52.50;;;;;;7401757;19;2030;-72
2024/01/13 01:00:51;;;;;;;;;;;15.50;52.50;;;;;;7403258;19;1800;-72
2024/01/13 01:03:16;;;;;;;;;;;15.50;52.50;;;;;;7400999;19;962;-72
2024/01/13 01:05:41;;;;;;;;;;;15.50;52.50;;;;;;7400873;19;2120;-72
2024/01/13 01:08:07;;;;;;;;;;;15.50;52.50;;;;;;7400785;19;1923;-72
2024/01/13 01:10:32;;;;;;;;;;;15.50;52.50;;;;;;7402378;19;2048;-72
2024/01/13 01:12:58;;;;;;;;;;;15.50;52.70;;;;;;7402555;19;1686;-72
2024/01/13 01:15:23;;;;;;;;;;;15.50;52.70;;;;;;7401109;19;2082;-72
2024/01/13 01:17:49;;;;;;;;;;;15.40;52.60;;;;;;7399156;19;879;-72
2024/01/13 01:20:14;;;;;;;;;;;15.40;52.60;;;;;;7400767;19;2006;-72
2024/01/13 01:22:39;;;;;;;;;;;15.40;52.50;;;;;;7398985;19;1006;-72
2024/01/13 01:25:05;;;;;;;;;;;15.40;52.60;;;;;;7402327;19;2002;-72
2024/01/13 01:27:31;;;;;;;;;;;15.40;52.60;;;;;;7401171;19;2370;-72
2024/01/13 01:29:56;;;;;;;;;;;15.40;52.80;;;;;;7400941;19;1876;-72
2024/01/13 01:32:22;;;;;;;;;;;15.40;52.70;;;;;;7401530;19;1900;-72
2024/01/13 01:34:47;;;;;;;;;;;15.40;52.70;;;;;;7401867;19;1785;-72
2024/01/13 01:37:12;;;;;;;;;;;15.40;52.70;;;;;;7401258;19;2025;-73
2024/01/13 01:39:38;;;;;;;;;;;15.30;52.70;;;;;;7399962;19;2074;-72
2024/01/13 01:42:04;;;;;;;;;;;15.30;52.70;;;;;;7401155;19;1615;-72
2024/01/13 01:44:29;;;;;;;;;;;15.30;52.70;;;;;;7400984;19;1862;-72
2024/01/13 01:46:55;;;;;;;;;;;15.30;52.70;;;;;;7397073;19;2088;-72
2024/01/13 01:49:20;;;;;;;;;;;15.30;52.70;;;;;;7399841;19;1931;-72
2024/01/13 01:51:46;;;;;;;;;;;15.30;52.80;;;;;;7403445;19;1510;-72
2024/01/13 01:54:11;;;;;;;;;;;15.30;52.70;;;;;;7400363;19;2273;-72
2024/01/13 01:56:37;;;;;;;;;;;15.30;52.90;;;;;;7396067;19;1841;-72
2024/01/13 01:59:02;;;;;;;;;;;15.20;52.80;;;;;;7400298;19;2344;-72
2024/01/13 02:01:30;;;;;;;;;;;15.30;53.00;;;;;;7400985;19;1551;-72
2024/01/13 02:03:55;;;;;;;;;;;15.20;52.80;;;;;;7398085;19;1872;-72
2024/01/13 02:06:21;;;;;;;;;;;15.20;52.80;;;;;;7402335;19;1756;-72
2024/01/13 02:08:46;;;;;;;;;;;15.20;52.80;;;;;;7396868;19;1919;-72
2024/01/13 02:11:12;;;;;;;;;;;15.20;52.80;;;;;;7397953;19;1758;-72
2024/01/13 02:13:37;;;;;;;;;;;15.20;52.80;;;;;;7396673;19;2134;-72
2024/01/13 02:16:04;;;;;;;;;;;15.20;52.80;;;;;;7397972;19;1841;-72
2024/01/13 02:18:29;;;;;;;;;;;15.30;52.70;;;;;;7401199;19;1908;-72
2024/01/13 02:20:55;;;;;;;;;;;15.40;52.60;;;;;;7399927;19;1469;-72
2024/01/13 02:23:20;;;;;;;;;;;15.40;52.50;;;;;;7402177;19;1997;-72
2024/01/13 02:25:45;;;;;;;;;;;15.40;52.40;;;;;;7398741;19;2142;-72
2024/01/13 02:28:11;;;;;;;;;;;15.60;52.30;;;;;;7397976;19;2546;-72
2024/01/13 02:30:36;;;;;;;;;;;15.70;52.10;;;;;;7400821;19;1900;-72
2024/01/13 02:33:02;;;;;;;;;;;15.80;51.80;;;;;;7399122;19;2168;-73
2024/01/13 02:35:27;;;;;;;;;;;15.90;51.60;;;;;;7396966;19;1838;-73
2024/01/13 02:37:52;;;;;;;;;;;16.00;51.30;;;;;;7399064;19;2074;-71
2024/01/13 02:40:18;;;;;;;;;;;16.20;51.20;;;;;;7398411;19;2069;-72
2024/01/13 02:42:43;;;;;;;;;;;16.30;50.90;;;;;;7399030;19;1928;-72
2024/01/13 02:45:09;;;;;;;;;;;16.40;51.00;;;;;;7397636;19;2160;-73
2024/01/13 02:47:40;;;;;;;;;;;16.50;50.60;;;;;;7395979;19;2307;-72
2024/01/13 02:50:06;;;;;;;;;;;16.60;50.40;;;;;;7398922;19;2529;-73
2024/01/13 02:52:31;;;;;;;;;;;16.60;50.30;;;;;;7396024;19;1038;-72
2024/01/13 02:54:57;;;;;;;;;;;16.70;50.30;;;;;;7395366;19;1010;-72
2024/01/13 02:57:22;;;;;;;;;;;16.70;50.10;;;;;;7395681;19;1888;-72
2024/01/13 02:59:47;;;;;;;;;;;16.80;50.10;;;;;;7396492;19;2102;-72
2024/01/13 03:02:13;;;;;;;;;;;16.80;50.00;;;;;;7399102;19;1643;-72
2024/01/13 03:04:38;;;;;;;;;;;16.80;49.90;;;;;;7395569;19;970;-73
2024/01/13 03:07:04;;;;;;;;;;;16.90;49.90;;;;;;7397712;19;1936;-72
2024/01/13 03:09:29;;;;;;;;;;;16.90;49.90;;;;;;7395873;19;2216;-72
2024/01/13 03:11:55;;;;;;;;;;;16.90;49.90;;;;;;7394685;19;2195;-72
2024/01/13 03:14:20;;;;;;;;;;;16.90;49.80;;;;;;7397676;19;1963;-72
2024/01/13 03:16:46;;;;;;;;;;;16.90;49.70;;;;;;7395683;19;2068;-72
2024/01/13 03:19:11;;;;;;;;;;;16.90;49.80;;;;;;7394967;19;1803;-72
2024/01/13 03:21:36;;;;;;;;;;;16.90;49.70;;;;;;7397662;19;1810;-73
2024/01/13 03:24:02;;;;;;;;;;;16.90;49.70;;;;;;7394908;19;1065;-72
2024/01/13 03:26:28;;;;;;;;;;;16.90;49.90;;;;;;7397148;19;2078;-72
2024/01/13 03:28:53;;;;;;;;;;;16.90;49.90;;;;;;7397596;19;2109;-71
2024/01/13 03:31:18;;;;;;;;;;;16.90;49.80;;;;;;7395825;19;2145;-72
2024/01/13 03:33:44;;;;;;;;;;;16.90;49.90;;;;;;7396583;19;1858;-72
2024/01/13 03:36:10;;;;;;;;;;;16.90;49.90;;;;;;7395367;19;1842;-72
2024/01/13 03:38:35;;;;;;;;;;;17.00;49.90;;;;;;7397557;19;2194;-72
2024/01/13 03:41:01;;;;;;;;;;;17.00;49.90;;;;;;7397788;19;2056;-73
2024/01/13 03:43:26;;;;;;;;;;;17.00;49.80;;;;;;7394474;19;2199;-72
2024/01/13 03:45:52;;;;;;;;;;;17.00;49.80;;;;;;7396378;19;1895;-72
2024/01/13 03:48:17;;;;;;;;;;;17.00;49.80;;;;;;7398293;19;1956;-72
2024/01/13 03:50:43;;;;;;;;;;;17.00;49.80;;;;;;7398226;19;2166;-72
2024/01/13 03:53:08;;;;;;;;;;;17.10;49.70;;;;;;7396637;19;2154;-72
2024/01/13 03:55:34;;;;;;;;;;;17.00;49.60;;;;;;7396618;19;2102;-73
2024/01/13 03:57:59;;;;;;;;;;;17.00;49.70;;;;;;7392756;19;2102;-72
2024/01/13 04:00:25;;;;;;;;;;;17.00;49.70;;;;;;7394219;19;1788;-72
2024/01/13 04:02:50;;;;;;;;;;;17.00;49.70;;;;;;7396621;19;1768;-72
2024/01/13 04:05:15;;;;;;;;;;;17.00;49.90;;;;;;7396382;19;1989;-72
2024/01/13 04:07:41;;;;;;;;;;;16.90;49.90;;;;;;7395828;19;2224;-73
2024/01/13 04:10:07;;;;;;;;;;;17.00;50.00;;;;;;7394714;19;1548;-72
2024/01/13 04:12:32;;;;;;;;;;;16.90;50.00;;;;;;7394413;19;1699;-72
2024/01/13 04:14:57;;;;;;;;;;;16.90;50.10;;;;;;7393558;19;843;-72
2024/01/13 04:17:23;;;;;;;;;;;16.90;50.10;;;;;;7391977;19;1845;-72
2024/01/13 04:19:48;;;;;;;;;;;16.90;50.20;;;;;;7396138;19;1616;-72
2024/01/13 04:22:14;;;;;;;;;;;16.90;50.30;;;;;;7394623;19;1948;-72
2024/01/13 04:24:39;;;;;;;;;;;16.90;50.00;;;;;;7393653;19;851;-72
2024/01/13 04:27:05;;;;;;;;;;;17.00;50.00;;;;;;7391563;19;2187;-72
2024/01/13 04:29:30;;;;;;;;;;;17.00;49.90;;;;;;7396630;19;1681;-72
2024/01/13 04:31:56;;;;;;;;;;;17.00;49.80;;;;;;7396759;19;1888;-72
2024/01/13 04:34:22;;;;;;;;;;;17.00;49.90;;;;;;7395332;19;2064;-72
2024/01/13 04:36:47;;;;;;;;;;;17.00;49.80;;;;;;7395036;19;2026;-72
2024/01/13 04:39:13;;;;;;;;;;;17.10;49.90;;;;;;7393506;19;784;-72
2024/01/13 04:41:41;;;;;;;;;;;17.10;49.70;;;;;;7398455;19;1626;-72
2024/01/13 04:44:07;;;;;;;;;;;17.10;49.80;;;;;;7395759;19;1755;-72
2024/01/13 04:46:33;;;;;;;;;;;17.10;49.80;;;;;;7399688;19;1769;-72
2024/01/13 04:48:58;;;;;;;;;;;17.00;49.80;;;;;;7393680;19;2159;-72
2024/01/13 04:51:24;;;;;;;;;;;17.00;50.00;;;;;;7395767;19;1544;-72
2024/01/13 04:53:49;;;;;;;;;;;17.00;50.00;;;;;;7396470;19;1881;-72
2024/01/13 04:56:16;;;;;;;;;;;17.00;50.00;;;;;;7395710;19;1857;-72
2024/01/13 04:58:41;;;;;;;;;;;17.00;50.00;;;;;;7393002;19;1916;-72
2024/01/13 05:01:07;;;;;;;;;;;17.00;50.10;;;;;;7392845;19;2198;-72
2024/01/13 05:03:34;;;;;;;;;;;17.00;50.10;;;;;;7392276;19;3213;-72
2024/01/13 05:05:59;;;;;;;;;;;17.00;50.10;;;;;;7395543;19;1912;-72
2024/01/13 05:08:24;;;;;;;;;;;17.00;50.10;;;;;;7393709;19;1772;-72
2024/01/13 05:10:50;;;;;;;;;;;17.00;49.90;;;;;;7396925;19;1134;-72
2024/01/13 05:13:15;;;;;;;;;;;17.00;49.90;;;;;;7399780;19;2001;-72
2024/01/13 05:15:42;;;;;;;;;;;17.10;49.90;;;;;;7402435;19;1881;-72
2024/01/13 05:18:08;;;;;;;;;;;17.10;49.90;;;;;;7400057;19;1886;-72
2024/01/13 05:20:34;;;;;;;;;;;17.10;49.80;;;;;;7401359;19;1786;-73
2024/01/13 05:22:59;;;;;;;;;;;17.10;50.40;;;;;;7400721;19;1864;-72
2024/01/13 05:25:25;;;;;;;;;;;17.20;49.70;;;;;;7402546;19;2145;-72
2024/01/13 05:27:50;;;;;;;;;;;17.20;49.60;;;;;;7400485;19;855;-72
2024/01/13 05:30:16;;;;;;;;;;;17.10;49.50;;;;;;7400473;19;1674;-72
2024/01/13 05:32:41;;;;;;;;;;;17.10;49.60;;;;;;7402638;19;1484;-72
2024/01/13 05:35:07;;;;;;;;;;;17.10;49.70;;;;;;7400767;19;1421;-73
2024/01/13 05:37:33;;;;;;;;;;;17.00;49.90;;;;;;7396965;19;1956;-72
2024/01/13 05:39:59;;;;;;;;;;;17.00;50.00;;;;;;7398610;19;907;-72
2024/01/13 05:42:25;;;;;;;;;;;17.00;50.30;;;;;;7399962;19;1873;-72
2024/01/13 05:44:50;;;;;;;;;;;17.00;50.00;;;;;;7401921;19;1768;-72
2024/01/13 05:47:16;;;;;;;;;;;17.00;49.90;;;;;;7403361;19;2032;-72
2024/01/13 05:49:42;;;;;;;;;;;17.00;49.90;;;;;;7400325;19;2196;-72
2024/01/13 05:52:10;;;;;;;;;;;17.00;49.90;;;;;;7401092;19;2122;-72
2024/01/13 05:54:37;;;;;;;;;;;17.00;50.00;;;;;;7400936;19;1618;-72
2024/01/13 05:57:03;;;;;;;;;;;17.10;49.90;;;;;;7397974;19;1928;-72
2024/01/13 05:59:28;;;;;;;;;;;17.10;49.90;;;;;;7397629;19;1245;-72
2024/01/13 06:01:54;;;;;;;;;;;17.00;49.70;;;;;;7400665;19;2037;-72
2024/01/13 06:04:19;;;;;;;;;;;17.10;49.70;;;;;;7400823;19;1764;-72
2024/01/13 06:06:45;;;;;;;;;;;17.10;49.60;;;;;;7399603;19;1876;-72
2024/01/13 06:09:11;;;;;;;;;;;17.10;49.60;;;;;;7398341;19;1590;-72
2024/01/13 06:11:40;;;;;;;;;;;17.10;49.70;;;;;;7397749;19;2170;-73
2024/01/13 06:14:06;;;;;;;;;;;17.10;49.60;;;;;;7400559;19;2160;-72
2024/01/13 06:16:31;;;;;;;;;;;17.10;49.60;;;;;;7400444;19;1850;-72
2024/01/13 06:18:56;;;;;;;;;;;17.10;49.60;;;;;;7399492;19;1973;-72
2024/01/13 06:21:22;;;;;;;;;;;17.10;49.70;;;;;;7394727;19;2084;-72
2024/01/13 06:23:47;;;;;;;;;;;17.10;49.70;;;;;;7400879;19;2003;-72
2024/01/13 06:26:13;;;;;;;;;;;17.00;49.80;;;;;;7397893;19;2056;-72
2024/01/13 06:28:38;;;;;;;;;;;17.00;50.00;;;;;;7396178;19;1891;-72
2024/01/13 06:31:04;;;;;;;;;;;17.00;49.90;;;;;;7400250;19;875;-72
2024/01/13 06:33:29;;;;;;;;;;;17.00;49.80;;;;;;7397923;19;2146;-73
2024/01/13 06:35:55;;;;;;;;;;;17.00;49.80;;;;;;7399372;19;2176;-72
2024/01/13 06:38:20;;;;;;;;;;;17.10;49.80;;;;;;7399321;19;2126;-72
2024/01/13 06:40:45;;;;;;;;;;;17.10;49.70;;;;;;7400598;19;1990;-72
2024/01/13 06:43:11;;;;;;;;;;;17.10;49.70;;;;;;7395844;19;1517;-72
2024/01/13 06:45:37;;;;;;;;;;;17.10;49.60;;;;;;7396317;19;2188;-72
2024/01/13 06:48:02;;;;;;;;;;;17.10;49.50;;;;;;7400904;19;1869;-72
2024/01/13 06:50:28;;;;;;;;;;;17.10;49.40;;;;;;7400044;19;1823;-72
2024/01/13 06:52:53;;;;;;;;;;;17.10;49.50;;;;;;7395608;19;1716;-72
2024/01/13 06:55:23;;;;;;;;;;;17.10;49.40;;;;;;7397086;19;2170;-72
2024/01/13 06:57:51;;;;;;;;;;;17.10;49.60;;;;;;7395211;19;2178;-73
2024/01/13 07:00:17;;;;;;;;;;;17.10;49.70;;;;;;7398855;19;1965;-73
2024/01/13 07:02:44;;;;;;;;;;;17.00;49.60;;;;;;7396694;19;2835;-72
2024/01/13 07:05:10;;;;;;;;;;;17.00;49.80;;;;;;7399778;19;2147;-72
2024/01/13 07:07:36;;;;;;;;;;;17.00;49.70;;;;;;7400012;19;2947;-72
2024/01/13 07:10:01;;;;;;;;;;;17.00;49.80;;;;;;7399015;19;1563;-73
2024/01/13 07:12:27;;;;;;;;;;;17.00;49.70;;;;;;7395543;19;804;-72
2024/01/13 07:14:52;;;;;;;;;;;17.10;49.60;;;;;;7400061;19;1604;-72
2024/01/13 07:17:18;;;;;;;;;;;17.00;49.60;;;;;;7393795;19;1850;-73
2024/01/13 07:19:43;;;;;;;;;;;17.10;49.60;;;;;;7395666;19;1447;-72
2024/01/13 07:22:09;;;;;;;;;;;17.10;49.60;;;;;;7398104;19;1978;-72
2024/01/13 07:24:34;;;;;;;;;;;17.10;49.70;;;;;;7398686;19;2100;-72
2024/01/13 07:26:59;;;;;;;;;;;17.10;49.60;;;;;;7397492;19;2115;-73
2024/01/13 07:29:25;;;;;;;;;;;17.10;49.60;;;;;;7395271;19;862;-72
2024/01/13 07:31:50;;;;;;;;;;;17.10;49.60;;;;;;7397003;19;2606;-72
2024/01/13 07:34:16;;;;;;;;;;;17.10;49.50;;;;;;7396455;19;1793;-72
2024/01/13 07:36:41;;;;;;;;;;;17.20;49.30;;;;;;7397602;19;1915;-73
2024/01/13 07:39:09;;;;;;;;;;;17.10;49.40;;;;;;7394849;19;2168;-72
2024/01/13 07:41:38;;;;;;;;;;;17.10;49.40;;;;;;7395483;19;2079;-72
2024/01/13 07:44:03;;;;;;;;;;;17.10;49.50;;;;;;7394962;19;831;-73
2024/01/13 07:46:29;;;;;;;;;;;17.10;49.60;;;;;;7396231;19;2005;-72
2024/01/13 07:48:54;;;;;;;;;;;17.00;49.70;;;;;;7395745;19;2149;-72
2024/01/13 07:51:19;;;;;;;;;;;17.00;49.70;;;;;;7395932;19;2172;-72
2024/01/13 07:53:45;;;;;;;;;;;17.00;49.60;;;;;;7394872;19;2072;-72
2024/01/13 07:56:11;;;;;;;;;;;17.00;49.60;;;;;;7396242;19;1971;-72
2024/01/13 07:58:36;;;;;;;;;;;17.00;49.60;;;;;;7395391;19;883;-72
2024/01/13 08:01:02;;;;;;;;;;;17.00;49.70;;;;;;7393883;19;1929;-72
2024/01/13 08:03:28;;;;;;;;;;;17.00;49.70;;;;;;7396109;19;2624;-73
2024/01/13 08:05:53;;;;;;;;;;;17.00;49.60;;;;;;7395501;19;2083;-73
2024/01/13 08:08:19;;;;;;;;;;;17.10;49.60;;;;;;7395865;19;1825;-73
2024/01/13 08:10:44;;;;;;;;;;;17.10;49.60;;;;;;7394706;19;1975;-72
2024/01/13 08:13:10;;;;;;;;;;;17.10;49.40;;;;;;7394230;19;1778;-72
2024/01/13 08:15:35;;;;;;;;;;;17.10;49.40;;;;;;7394002;19;1878;-72
2024/01/13 08:18:01;;;;;;;;;;;17.20;49.40;;;;;;7392147;19;1938;-72
2024/01/13 08:20:26;;;;;;;;;;;17.20;49.30;;;;;;7395573;19;2057;-72
2024/01/13 08:22:52;;;;;;;;;;;17.10;49.30;;;;;;7396215;19;1862;-72
2024/01/13 08:25:17;;;;;;;;;;;17.10;49.40;;;;;;7393204;19;1844;-72
2024/01/13 08:27:43;;;;;;;;;;;17.10;49.50;;;;;;7394244;19;2149;-73
2024/01/13 08:30:08;;;;;;;;;;;17.10;49.50;;;;;;7392154;19;2084;-72
2024/01/13 08:32:34;;;;;;;;;;;17.00;49.60;;;;;;7396111;19;1982;-72
2024/01/13 08:34:59;;;;;;;;;;;17.00;49.60;;;;;;7392359;19;2080;-72
2024/01/13 08:37:25;;;;;;;;;;;17.00;49.60;;;;;;7392642;19;1924;-73
2024/01/13 08:39:50;;;;;;;;;;;17.00;49.60;;;;;;7396442;19;1921;-72
2024/01/13 08:42:15;;;;;;;;;;;17.00;49.60;;;;;;7394579;19;2183;-72
2024/01/13 08:44:41;;;;;;;;;;;17.00;49.60;;;;;;7398864;19;2070;-72
2024/01/13 08:47:06;;;;;;;;;;;17.00;49.60;;;;;;7402108;19;2426;-72
2024/01/13 08:49:32;;;;;;;;;;;17.00;49.60;;;;;;7400078;19;1811;-72
2024/01/13 08:51:57;;;;;;;;;;;17.10;49.50;;;;;;7400177;19;2151;-72
2024/01/13 08:54:23;;;;;;;;;;;17.10;49.40;;;;;;7401820;19;1691;-72
2024/01/13 08:56:49;;;;;;;;;;;17.10;49.40;;;;;;7399966;19;1856;-72
2024/01/13 08:59:15;;;;;;;;;;;17.10;49.40;;;;;;7400404;19;2053;-72
2024/01/13 09:01:40;;;;;;;;;;;17.10;49.30;;;;;;7401190;19;2125;-72
2024/01/13 09:04:09;;;;;;;;;;;17.10;49.30;;;;;;7400531;19;2272;-72
2024/01/13 09:06:34;;;;;;;;;;;17.10;49.40;;;;;;7402214;19;1537;-72
2024/01/13 09:09:00;;;;;;;;;;;17.10;49.60;;;;;;7401308;19;1552;-72
2024/01/13 09:11:25;;;;;;;;;;;17.00;49.70;;;;;;7397372;19;1567;-72
2024/01/13 09:13:51;;;;;;;;;;;17.10;49.50;;;;;;7402354;19;1532;-72
2024/01/13 09:16:16;;;;;;;;;;;17.10;49.40;;;;;;7400573;19;1858;-72
2024/01/13 09:18:42;;;;;;;;;;;17.20;49.30;;;;;;7399019;19;1009;-72
2024/01/13 09:21:08;;;;;;;;;;;17.30;49.30;;;;;;7402282;19;1380;-72
2024/01/13 09:23:34;;;;;;;;;;;17.30;49.20;;;;;;7403236;19;1583;-72
2024/01/13 09:26:02;;;;;;;;;;;17.30;49.10;;;;;;7399459;19;1324;-73
2024/01/13 09:28:27;;;;;;;;;;;17.40;49.10;;;;;;7401547;19;1718;-73
2024/01/13 09:30:53;;;;;;;;;;;17.40;49.30;;;;;;7403877;19;1878;-72
2024/01/13 09:33:19;;;;;;;;;;;17.50;49.40;;;;;;7400414;19;1538;-73
2024/01/13 09:35:44;;;;;;;;;;;17.40;49.10;;;;;;7401433;19;1814;-72
2024/01/13 09:38:10;;;;;;;;;;;17.40;49.00;;;;;;7400810;19;1635;-73
2024/01/13 09:40:39;;;;;;;;;;;17.40;49.10;;;;;;7400291;19;1617;-73
2024/01/13 09:43:13;;;;;;;;;;;17.40;49.10;;;;;;7397492;19;894;-72
2024/01/13 09:45:38;;;;;;;;;;;17.40;49.00;;;;;;7400360;19;1686;-73
2024/01/13 09:48:04;;;;;;;;;;;17.40;49.10;;;;;;7400647;19;1581;-72
2024/01/13 09:50:29;;;;;;;;;;;17.40;49.00;;;;;;7403690;19;1589;-72
2024/01/13 09:52:55;;;;;;;;;;;17.50;49.00;;;;;;7401110;19;1525;-73
2024/01/13 09:55:20;;;;;;;;;;;17.40;49.10;;;;;;7399567;19;1491;-72
2024/01/13 09:57:46;;;;;;;;;;;17.50;49.20;;;;;;7399827;19;1849;-72
2024/01/13 10:00:12;;;;;;;;;;;17.50;49.10;;;;;;7398209;19;883;-73
2024/01/13 10:02:38;;;;;;;;;;;17.50;49.10;;;;;;7401683;19;1519;-72
2024/01/13 10:05:04;;;;;;;;;;;17.40;49.10;;;;;;7396663;19;2296;-72
2024/01/13 10:07:30;;;;;;;;;;;17.50;49.10;;;;;;7402460;19;1416;-72
2024/01/13 10:09:56;;;;;;;;;;;17.50;49.10;;;;;;7398662;19;1438;-73
2024/01/13 10:12:23;;;;;;;;;;;17.50;49.10;;;;;;7397879;19;1724;-73
2024/01/13 10:14:48;;;;;;;;;;;17.50;49.10;;;;;;7397635;19;1587;-73
2024/01/13 10:17:14;;;;;;;;;;;17.50;49.10;;;;;;7399438;19;1888;-73
2024/01/13 10:19:41;;;;;;;;;;;17.50;49.20;;;;;;7398436;19;1845;-74
2024/01/13 10:22:07;;;;;;;;;;;17.50;49.10;;;;;;7399254;19;1804;-74
2024/01/13 10:24:33;;;;;;;;;;;17.50;49.10;;;;;;7396930;19;863;-74
2024/01/13 10:26:58;;;;;;;;;;;17.50;49.10;;;;;;7400589;19;1618;-74
2024/01/13 10:29:24;;;;;;;;;;;17.50;49.10;;;;;;7398705;19;1616;-74
2024/01/13 10:31:52;;;;;;;;;;;17.60;49.20;;;;;;7397930;19;3029;-74
2024/01/13 10:34:19;;;;;;;;;;;17.60;49.20;;;;;;7399065;19;1608;-74
2024/01/13 10:36:44;;;;;;;;;;;17.70;49.30;;;;;;7395255;19;1829;-74
2024/01/13 10:39:10;;;;;;;;;;;17.70;49.10;;;;;;7400600;19;1635;-74
2024/01/13 10:41:35;;;;;;;;;;;17.70;49.10;;;;;;7400129;19;1736;-74
2024/01/13 10:44:02;;;;;;;;;;;17.70;49.00;;;;;;7396435;19;871;-74
2024/01/13 10:46:28;;;;;;;;;;;17.70;49.00;;;;;;7396745;19;1201;-74
2024/01/13 10:48:59;;;;;;;;;;;17.70;49.10;;;;;;7399234;19;1616;-74
2024/01/13 10:51:24;;;;;;;;;;;17.70;49.10;;;;;;7398587;19;1730;-74
2024/01/13 10:53:50;;;;;;;;;;;17.70;49.10;;;;;;7400522;19;1485;-74
2024/01/13 10:56:15;;;;;;;;;;;17.70;49.10;;;;;;7396947;19;1842;-74
2024/01/13 10:58:41;;;;;;;;;;;17.70;49.20;;;;;;7398691;19;1609;-74
2024/01/13 11:01:07;;;;;;;;;;;17.60;49.00;;;;;;7397335;19;991;-74
2024/01/13 11:03:33;;;;;;;;;;;17.60;49.10;;;;;;7396085;19;1524;-74
2024/01/13 11:05:58;;;;;;;;;;;17.60;49.10;;;;;;7395968;19;1236;-73
2024/01/13 11:08:24;;;;;;;;;;;17.60;49.10;;;;;;7396022;19;2626;-75
2024/01/13 11:10:50;;;;;;;;;;;17.70;49.20;;;;;;7396128;19;1557;-74
2024/01/13 11:13:25;;;;;;;;;;;17.70;49.20;;;;;;7396296;19;1604;-74
2024/01/13 11:16:08;;;;;;;;;;;17.60;49.20;;;;;;7398622;19;1833;-74
2024/01/13 11:18:46;;;;;;;;;;;17.60;49.20;;;;;;7395777;19;1634;-73
2024/01/13 11:21:12;;;;;;;;;;;17.60;49.50;;;;;;7397971;19;1629;-74
2024/01/13 11:23:49;;;;;;;;;;;17.60;49.70;;;;;;7397265;19;2031;-74
2024/01/13 11:26:16;;;;;;;;;;;17.50;49.60;;;;;;7399050;19;1678;-73
2024/01/13 11:28:42;;;;;;;;;;;17.60;49.80;;;;;;7394487;19;919;-74
2024/01/13 11:31:22;;;;;;;;;;;17.50;49.70;;;;;;7396466;19;1165;-74
2024/01/13 11:33:48;;;;;;;;;;;17.50;49.70;;;;;;7398098;19;1569;-74
2024/01/13 11:36:14;;;;;;;;;;;17.50;49.70;;;;;;7394228;19;1834;-74
2024/01/13 11:38:39;;;;;;;;;;;17.50;49.60;;;;;;7398224;19;1751;-74
2024/01/13 11:41:05;;;;;;;;;;;17.50;49.70;;;;;;7396659;19;1517;-74
2024/01/13 11:43:30;;;;;;;;;;;17.50;49.70;;;;;;7394250;19;1481;-74
2024/01/13 11:45:56;;;;;;;;;;;17.50;49.80;;;;;;7394065;19;1281;-74
2024/01/13 11:48:30;;;;;;;;;;;17.50;49.70;;;;;;7393552;19;1031;-74
2024/01/13 11:50:56;;;;;;;;;;;17.50;49.80;;;;;;7397695;19;1538;-74
2024/01/13 11:53:39;;;;;;;;;;;17.50;49.70;;;;;;7398080;19;1511;-74
2024/01/13 11:56:05;;;;;;;;;;;17.50;49.70;;;;;;7395337;19;1846;-74
2024/01/13 11:58:33;;;;;;;;;;;17.60;49.70;;;;;;7393238;19;1107;-73
2024/01/13 12:00:58;;;;;;;;;;;17.60;49.80;;;;;;7396307;19;1639;-74
2024/01/13 12:03:23;;;;;;;;;;;17.50;49.70;;;;;;7396121;19;1625;-74
2024/01/13 12:05:49;;;;;;;;;;;17.60;49.60;;;;;;7394140;19;824;-74
2024/01/13 12:08:15;;;;;;;;;;;17.50;49.70;;;;;;7391826;19;3477;-73
2024/01/13 12:10:43;;;;;;;;;;;17.60;49.60;;;;;;7394316;19;1626;-73
2024/01/13 12:13:18;;;;;;;;;;;17.60;49.50;;;;;;7394584;19;871;-74
2024/01/13 12:15:47;;;;;;;;;;;17.70;49.60;;;;;;7397362;19;1838;-74
2024/01/13 12:18:20;;;;;;;;;;;17.60;49.50;;;;;;7394331;19;1604;-74
2024/01/13 12:20:46;;;;;;;;;;;17.60;49.60;;;;;;7395302;19;1763;-74
2024/01/13 12:23:11;;;;;;;;;;;17.60;49.50;;;;;;7396568;19;1305;-74
2024/01/13 12:25:37;;;;;;;;;;;17.60;49.50;;;;;;7396475;19;1607;-74
2024/01/13 12:28:02;;;;;;;;;;;17.60;49.60;;;;;;7396549;19;1639;-74
2024/01/13 12:30:28;;;;;;;;;;;17.60;49.60;;;;;;7393501;19;1112;-73
2024/01/13 12:32:54;;;;;;;;;;;17.60;49.60;;;;;;7395024;19;1841;-74
2024/01/13 12:35:19;;;;;;;;;;;17.70;49.70;;;;;;7395483;19;1551;-74
2024/01/13 12:37:44;;;;;;;;;;;17.60;49.60;;;;;;7393723;19;1864;-74
2024/01/13 12:40:10;;;;;;;;;;;17.70;49.60;;;;;;7392946;19;774;-74
2024/01/13 12:42:38;;;;;;;;;;;17.60;49.50;;;;;;7396575;19;1692;-74
2024/01/13 12:45:04;;;;;;;;;;;17.60;49.50;;;;;;7394491;19;1614;-74
2024/01/13 12:47:29;;;;;;;;;;;17.70;49.70;;;;;;7393256;19;1072;-73
2024/01/13 12:50:05;;;;;;;;;;;17.70;49.60;;;;;;7393773;19;967;-73
2024/01/13 12:52:31;;;;;;;;;;;17.70;49.60;;;;;;7393147;19;1563;-73
2024/01/13 12:54:56;;;;;;;;;;;17.60;49.60;;;;;;7394800;19;1552;-73
2024/01/13 12:57:21;;;;;;;;;;;17.70;49.60;;;;;;7392166;19;1841;-73
2024/01/13 12:59:47;;;;;;;;;;;17.70;49.70;;;;;;7392387;19;3482;-73
2024/01/13 13:02:12;;;;;;;;;;;17.70;49.60;;;;;;7395870;19;1469;-72
2024/01/13 13:04:38;;;;;;;;;;;17.70;49.60;;;;;;7392917;19;1547;-73
2024/01/13 13:07:03;;;;;;;;;;;17.70;49.60;;;;;;7393114;19;1363;-73
2024/01/13 13:09:29;;;;;;;;;;;17.70;49.70;;;;;;7394415;19;2529;-73
2024/01/13 13:11:55;;;;;;;;;;;17.60;49.50;;;;;;7390909;19;1643;-73
2024/01/13 13:14:21;;;;;;;;;;;17.70;49.60;;;;;;7397966;19;1511;-73
2024/01/13 13:16:46;;;;;;;;;;;17.70;49.60;;;;;;7393670;19;1847;-73
2024/01/13 13:19:13;;;;;;;;;;;17.70;49.70;;;;;;7394869;19;1519;-72
2024/01/13 13:21:39;;;;;;;;;;;17.60;49.70;;;;;;7395564;19;1593;-73
2024/01/13 13:24:04;;;;;;;;;;;17.70;49.60;;;;;;7394759;19;1563;-73
2024/01/13 13:26:30;;;;;;;;;;;17.70;49.70;;;;;;7393712;19;1661;-72
2024/01/13 13:28:56;;;;;;;;;;;17.60;49.60;;;;;;7396109;19;1884;-73
2024/01/13 13:31:21;;;;;;;;;;;17.70;49.60;;;;;;7397235;19;1363;-72
2024/01/13 13:33:47;;;;;;;;;;;17.70;49.50;;;;;;7399984;19;1068;-72
2024/01/13 13:36:13;;;;;;;;;;;17.70;49.60;;;;;;7398782;19;1849;-73
2024/01/13 13:38:39;;;;;;;;;;;17.70;49.60;;;;;;7399938;19;1616;-73
2024/01/13 13:41:04;;;;;;;;;;;17.70;49.60;;;;;;7402346;19;1680;-73
2024/01/13 13:43:32;;;;;;;;;;;17.70;49.50;;;;;;7402374;19;1743;-72
2024/01/13 13:45:58;;;;;;;;;;;17.70;49.60;;;;;;7402798;19;1769;-73
2024/01/13 13:48:26;;;;;;;;;;;17.70;49.70;;;;;;7401930;19;1598;-72
2024/01/13 13:50:52;;;;;;;;;;;17.70;49.80;;;;;;7400943;19;1644;-73
2024/01/13 13:53:17;;;;;;;;;;;17.70;49.50;;;;;;7398348;19;1454;-72
2024/01/13 13:55:43;;;;;;;;;;;17.70;49.50;;;;;;7403267;19;1534;-72
2024/01/13 13:58:08;;;;;;;;;;;17.70;49.60;;;;;;7398415;19;1825;-72
2024/01/13 14:00:33;;;;;;;;;;;17.70;49.70;;;;;;7399704;19;1396;-72
2024/01/13 14:02:59;;;;;;;;;;;17.70;49.60;;;;;;7401234;19;1588;-72
2024/01/13 14:05:25;;;;;;;;;;;17.70;49.80;;;;;;7398867;19;1588;-73
2024/01/13 14:07:50;;;;;;;;;;;17.70;49.60;;;;;;7399786;19;1566;-73
2024/01/13 14:10:16;;;;;;;;;;;17.70;49.60;;;;;;7399022;19;2531;-73
2024/01/13 14:12:41;;;;;;;;;;;17.70;49.60;;;;;;7400351;19;1435;-72
2024/01/13 14:15:07;;;;;;;;;;;17.70;49.60;;;;;;7398872;19;852;-73
2024/01/13 14:17:32;;;;;;;;;;;17.70;49.60;;;;;;7399116;19;1845;-73
2024/01/13 14:19:57;;;;;;;;;;;17.70;49.60;;;;;;7398192;19;1525;-72
2024/01/13 14:22:23;;;;;;;;;;;17.70;49.60;;;;;;7400014;19;1675;-72